sensor_id;sensor_type;location;lat;lon;timestamp;P1;durP1;ratioP1;P2;durP2;ratioP2
86080;SDS011;76690;46.208;11.094;2024-03-07T11:12:48;3.47;;;0.70;;
86080;SDS011;76690;46.208;11.094;2024-03-07T11:15:16;2.08;;;1.20;;
86080;SDS011;76690;46.208;11.094;2024-03-07T11:17:45;2.17;;;0.88;;
86080;SDS011;76690;46.208;11.094;2024-03-07T11:25:16;1.52;;;0.35;;
86080;SDS011;76690;46.208;11.094;2024-03-07T11:27:50;1.20;;;0.60;;
86080;SDS011;76690;46.208;11.094;2024-03-07T11:30:17;4.68;;;0.70;;
86080;SDS011;76690;46.208;11.094;2024-03-07T11:32:43;1.30;;;0.57;;
86080;SDS011;76690;46.208;11.094;2024-03-07T11:35:13;0.60;;;0.50;;
86080;SDS011;76690;46.208;11.094;2024-03-07T11:37:43;2.03;;;0.77;;
86080;SDS011;76690;46.208;11.094;2024-03-07T11:40:11;0.70;;;0.60;;
86080;SDS011;76690;46.208;11.094;2024-03-07T11:42:45;0.80;;;0.60;;
86080;SDS011;76690;46.208;11.094;2024-03-07T11:45:13;4.55;;;1.00;;
86080;SDS011;76690;46.208;11.094;2024-03-07T11:47:52;1.35;;;1.00;;
86080;SDS011;76690;46.208;11.094;2024-03-07T11:50:26;1.77;;;0.70;;
86080;SDS011;76690;46.208;11.094;2024-03-07T11:52:55;2.00;;;0.60;;
86080;SDS011;76690;46.208;11.094;2024-03-07T11:55:21;2.60;;;0.73;;
86080;SDS011;76690;46.208;11.094;2024-03-07T11:57:48;3.17;;;0.98;;
86080;SDS011;76690;46.208;11.094;2024-03-07T12:00:15;1.80;;;0.70;;
86080;SDS011;76690;46.208;11.094;2024-03-07T12:02:42;0.70;;;0.63;;
86080;SDS011;76690;46.208;11.094;2024-03-07T12:05:13;0.95;;;0.60;;
86080;SDS011;76690;46.208;11.094;2024-03-07T12:07:40;8.75;;;1.42;;
86080;SDS011;76690;46.208;11.094;2024-03-07T12:10:08;1.75;;;0.77;;
86080;SDS011;76690;46.208;11.094;2024-03-07T12:12:35;2.67;;;0.95;;
86080;SDS011;76690;46.208;11.094;2024-03-07T12:15:03;0.60;;;0.50;;
86080;SDS011;76690;46.208;11.094;2024-03-07T12:17:44;1.67;;;0.73;;
86080;SDS011;76690;46.208;11.094;2024-03-07T12:20:11;1.17;;;0.73;;
86080;SDS011;76690;46.208;11.094;2024-03-07T12:22:50;4.30;;;1.05;;
86080;SDS011;76690;46.208;11.094;2024-03-07T12:25:18;1.45;;;0.82;;
86080;SDS011;76690;46.208;11.094;2024-03-07T12:30:15;2.60;;;0.70;;
86080;SDS011;76690;46.208;11.094;2024-03-07T12:32:50;4.40;;;1.35;;
86080;SDS011;76690;46.208;11.094;2024-03-07T12:35:17;1.38;;;1.17;;
86080;SDS011;76690;46.208;11.094;2024-03-07T12:37:43;2.95;;;0.80;;
86080;SDS011;76690;46.208;11.094;2024-03-07T12:40:12;3.85;;;0.98;;
86080;SDS011;76690;46.208;11.094;2024-03-07T12:42:47;5.38;;;0.70;;
86080;SDS011;76690;46.208;11.094;2024-03-07T12:45:13;2.05;;;0.90;;
86080;SDS011;76690;46.208;11.094;2024-03-07T12:47:43;3.40;;;0.80;;
86080;SDS011;76690;46.208;11.094;2024-03-07T12:50:09;2.05;;;0.65;;
86080;SDS011;76690;46.208;11.094;2024-03-07T12:52:38;5.85;;;1.10;;
86080;SDS011;76690;46.208;11.094;2024-03-07T12:55:05;1.00;;;0.90;;
86080;SDS011;76690;46.208;11.094;2024-03-07T12:57:32;1.45;;;0.65;;
86080;SDS011;76690;46.208;11.094;2024-03-07T12:59:58;7.65;;;1.20;;
86080;SDS011;76690;46.208;11.094;2024-03-07T13:02:24;15.15;;;1.73;;
86080;SDS011;76690;46.208;11.094;2024-03-07T13:07:18;1.95;;;0.77;;
86080;SDS011;76690;46.208;11.094;2024-03-07T13:09:44;2.63;;;0.77;;
86080;SDS011;76690;46.208;11.094;2024-03-07T13:12:13;6.18;;;1.50;;
86080;SDS011;76690;46.208;11.094;2024-03-07T13:14:40;1.73;;;0.63;;
86080;SDS011;76690;46.208;11.094;2024-03-07T13:17:09;2.15;;;0.70;;
86080;SDS011;76690;46.208;11.094;2024-03-07T13:19:35;4.43;;;1.05;;
86080;SDS011;76690;46.208;11.094;2024-03-07T13:22:03;2.60;;;0.60;;
86080;SDS011;76690;46.208;11.094;2024-03-07T13:24:31;1.25;;;0.68;;
86080;SDS011;76690;46.208;11.094;2024-03-07T13:27:00;2.33;;;0.45;;
86080;SDS011;76690;46.208;11.094;2024-03-07T13:29:26;2.25;;;0.70;;
86080;SDS011;76690;46.208;11.094;2024-03-07T13:31:53;1.17;;;0.70;;
86080;SDS011;76690;46.208;11.094;2024-03-07T13:34:21;1.25;;;0.68;;
86080;SDS011;76690;46.208;11.094;2024-03-07T13:36:51;1.52;;;0.70;;
86080;SDS011;76690;46.208;11.094;2024-03-07T13:39:17;1.10;;;0.60;;
86080;SDS011;76690;46.208;11.094;2024-03-07T13:41:43;2.65;;;0.75;;
86080;SDS011;76690;46.208;11.094;2024-03-07T13:44:13;1.00;;;0.50;;
86080;SDS011;76690;46.208;11.094;2024-03-07T13:46:39;1.15;;;0.70;;
86080;SDS011;76690;46.208;11.094;2024-03-07T13:49:05;1.10;;;0.70;;
86080;SDS011;76690;46.208;11.094;2024-03-07T13:51:38;1.10;;;0.70;;
86080;SDS011;76690;46.208;11.094;2024-03-07T13:54:14;2.40;;;1.10;;
86080;SDS011;76690;46.208;11.094;2024-03-07T13:59:29;4.88;;;1.05;;
86080;SDS011;76690;46.208;11.094;2024-03-07T14:02:25;5.40;;;0.90;;
86080;SDS011;76690;46.208;11.094;2024-03-07T14:28:42;1.83;;;1.05;;
86080;SDS011;76690;46.208;11.094;2024-03-07T14:31:14;1.88;;;1.05;;
86080;SDS011;76690;46.208;11.094;2024-03-07T14:36:35;2.10;;;0.93;;
86080;SDS011;76690;46.208;11.094;2024-03-07T14:39:03;2.08;;;0.82;;
86080;SDS011;76690;46.208;11.094;2024-03-07T14:44:17;4.22;;;1.90;;
86080;SDS011;76690;46.208;11.094;2024-03-07T14:46:43;2.53;;;1.30;;
86080;SDS011;76690;46.208;11.094;2024-03-07T14:49:13;4.25;;;1.15;;
86080;SDS011;76690;46.208;11.094;2024-03-07T14:51:40;2.55;;;1.08;;
86080;SDS011;76690;46.208;11.094;2024-03-07T14:54:07;6.13;;;1.10;;
86080;SDS011;76690;46.208;11.094;2024-03-07T14:56:33;1.55;;;1.10;;
86080;SDS011;76690;46.208;11.094;2024-03-07T14:58:59;4.50;;;0.90;;
86080;SDS011;76690;46.208;11.094;2024-03-07T15:01:28;15.90;;;2.03;;
86080;SDS011;76690;46.208;11.094;2024-03-07T15:03:56;4.03;;;1.48;;
86080;SDS011;76690;46.208;11.094;2024-03-07T15:06:22;2.45;;;1.23;;
86080;SDS011;76690;46.208;11.094;2024-03-07T15:08:48;1.42;;;1.13;;
86080;SDS011;76690;46.208;11.094;2024-03-07T15:13:45;2.42;;;1.10;;
86080;SDS011;76690;46.208;11.094;2024-03-07T15:16:12;2.03;;;1.10;;
86080;SDS011;76690;46.208;11.094;2024-03-07T15:18:38;2.45;;;1.10;;
86080;SDS011;76690;46.208;11.094;2024-03-07T15:21:08;3.70;;;1.35;;
86080;SDS011;76690;46.208;11.094;2024-03-07T15:23:34;3.28;;;1.30;;
86080;SDS011;76690;46.208;11.094;2024-03-07T15:26:00;1.75;;;1.17;;
86080;SDS011;76690;46.208;11.094;2024-03-07T15:28:28;2.65;;;1.40;;
86080;SDS011;76690;46.208;11.094;2024-03-07T15:30:55;2.03;;;1.38;;
86080;SDS011;76690;46.208;11.094;2024-03-07T15:33:24;4.38;;;1.38;;
86080;SDS011;76690;46.208;11.094;2024-03-07T15:35:50;2.78;;;1.20;;
86080;SDS011;76690;46.208;11.094;2024-03-07T15:38:17;2.17;;;1.65;;
86080;SDS011;76690;46.208;11.094;2024-03-07T15:40:44;7.20;;;1.60;;
86080;SDS011;76690;46.208;11.094;2024-03-07T15:43:10;5.07;;;1.80;;
86080;SDS011;76690;46.208;11.094;2024-03-07T15:45:37;2.75;;;1.25;;
86080;SDS011;76690;46.208;11.094;2024-03-07T15:48:04;1.80;;;1.40;;
86080;SDS011;76690;46.208;11.094;2024-03-07T15:50:35;2.97;;;1.77;;
86080;SDS011;76690;46.208;11.094;2024-03-07T15:53:02;8.60;;;1.95;;
86080;SDS011;76690;46.208;11.094;2024-03-07T15:55:31;2.63;;;1.60;;
86080;SDS011;76690;46.208;11.094;2024-03-07T15:57:59;2.22;;;1.50;;
86080;SDS011;76690;46.208;11.094;2024-03-07T16:00:29;2.45;;;1.60;;
86080;SDS011;76690;46.208;11.094;2024-03-07T16:03:00;2.70;;;2.50;;
86080;SDS011;76690;46.208;11.094;2024-03-07T16:05:29;7.68;;;2.45;;
86080;SDS011;76690;46.208;11.094;2024-03-07T16:07:56;2.00;;;1.55;;
86080;SDS011;76690;46.208;11.094;2024-03-07T16:10:26;3.55;;;1.77;;
86080;SDS011;76690;46.208;11.094;2024-03-07T16:12:55;1.88;;;1.50;;
86080;SDS011;76690;46.208;11.094;2024-03-07T16:15:22;4.50;;;2.20;;
86080;SDS011;76690;46.208;11.094;2024-03-07T16:17:51;3.47;;;2.28;;
86080;SDS011;76690;46.208;11.094;2024-03-07T16:20:21;2.90;;;1.63;;
86080;SDS011;76690;46.208;11.094;2024-03-07T16:22:47;4.68;;;1.70;;
86080;SDS011;76690;46.208;11.094;2024-03-07T16:25:14;3.65;;;1.90;;
86080;SDS011;76690;46.208;11.094;2024-03-07T16:27:43;3.65;;;1.80;;
86080;SDS011;76690;46.208;11.094;2024-03-07T16:32:38;5.78;;;2.72;;
86080;SDS011;76690;46.208;11.094;2024-03-07T16:35:05;8.25;;;2.88;;
86080;SDS011;76690;46.208;11.094;2024-03-07T16:37:38;6.93;;;2.83;;
86080;SDS011;76690;46.208;11.094;2024-03-07T16:40:08;6.15;;;2.40;;
86080;SDS011;76690;46.208;11.094;2024-03-07T16:42:37;2.63;;;1.90;;
86080;SDS011;76690;46.208;11.094;2024-03-07T16:45:10;4.35;;;2.10;;
86080;SDS011;76690;46.208;11.094;2024-03-07T16:47:40;6.85;;;2.10;;
86080;SDS011;76690;46.208;11.094;2024-03-07T16:50:06;3.38;;;2.08;;
86080;SDS011;76690;46.208;11.094;2024-03-07T16:52:39;6.07;;;2.10;;
86080;SDS011;76690;46.208;11.094;2024-03-07T16:55:06;3.22;;;2.30;;
86080;SDS011;76690;46.208;11.094;2024-03-07T16:57:42;3.70;;;2.53;;
86080;SDS011;76690;46.208;11.094;2024-03-07T17:00:09;3.83;;;1.90;;
86080;SDS011;76690;46.208;11.094;2024-03-07T17:02:39;5.53;;;3.22;;
86080;SDS011;76690;46.208;11.094;2024-03-07T17:05:05;4.38;;;1.70;;
86080;SDS011;76690;46.208;11.094;2024-03-07T17:10:06;3.83;;;2.90;;
